Time;durP1;ratioP1;P1;durP2;ratioP2;P2;SDS_P1;SDS_P2;PMS_P1;PMS_P2;Temp;Humidity;BMP_temperature;BMP_pressure;BME280_temperature;BME280_humidity;BME280_pressure;Samples;Min_cycle;Max_cycle;Signal;HPM_P1;HPM_P2
2022/02/21 00:01:11;;;;;;;34.17;6.17;;;;;;;;;;5054527;28;20846;-87
2022/02/21 00:03:38;;;;;;;35.53;6.93;;;;;;;;;;5053384;28;20583;-85
2022/02/21 00:06:06;;;;;;;28.93;5.90;;;;;;;;;;5054388;28;20224;-86
2022/02/21 00:08:33;;;;;;;30.97;6.13;;;;;;;;;;5054115;28;20200;-86
2022/02/21 00:11:02;;;;;;;34.13;5.33;;;;;;;;;;5053911;28;20608;-86
2022/02/21 00:13:31;;;;;;;29.83;5.90;;;;;;;;;;5054877;28;20220;-86
2022/02/21 00:15:59;;;;;;;25.00;5.33;;;;;;;;;;5061378;28;20208;-86
2022/02/21 00:18:26;;;;;;;37.53;6.47;;;;;;;;;;5054128;28;20249;-86
2022/02/21 00:20:54;;;;;;;38.10;6.20;;;;;;;;;;5053042;28;20246;-86
2022/02/21 00:23:21;;;;;;;35.37;5.87;;;;;;;;;;5053869;28;20600;-87
2022/02/21 00:25:50;;;;;;;29.03;5.40;;;;;;;;;;5053271;28;20276;-87
2022/02/21 00:28:17;;;;;;;37.33;6.57;;;;;;;;;;5053846;28;20257;-86
2022/02/21 00:30:45;;;;;;;36.03;6.03;;;;;;;;;;5054054;28;20214;-87
2022/02/21 00:33:16;;;;;;;34.07;5.83;;;;;;;;;;5053412;28;20633;-87
2022/02/21 00:35:43;;;;;;;29.10;5.03;;;;;;;;;;5053893;28;20204;-87
2022/02/21 00:38:10;;;;;;;28.10;5.07;;;;;;;;;;5053716;28;20206;-86
2022/02/21 00:40:38;;;;;;;34.17;5.47;;;;;;;;;;5053558;28;20664;-86
2022/02/21 00:43:05;;;;;;;26.47;5.27;;;;;;;;;;5053799;28;20277;-87
2022/02/21 00:45:32;;;;;;;28.53;5.33;;;;;;;;;;5056950;28;20244;-86
2022/02/21 00:47:59;;;;;;;29.63;5.00;;;;;;;;;;5059466;28;20251;-87
2022/02/21 00:50:28;;;;;;;28.57;4.73;;;;;;;;;;5045028;28;20202;-87
2022/02/21 00:52:55;;;;;;;27.17;5.10;;;;;;;;;;5053528;28;20220;-87
2022/02/21 00:55:23;;;;;;;32.23;5.17;;;;;;;;;;5053116;28;20283;-87
2022/02/21 00:57:50;;;;;;;28.37;5.27;;;;;;;;;;5053584;28;20259;-86
2022/02/21 01:00:18;;;;;;;27.80;4.03;;;;;;;;;;5052832;28;20235;-86
2022/02/21 01:02:45;;;;;;;28.20;5.33;;;;;;;;;;5053426;28;20208;-87
2022/02/21 01:05:13;;;;;;;24.13;4.67;;;;;;;;;;5052962;28;20197;-87
2022/02/21 01:07:42;;;;;;;24.50;4.73;;;;;;;;;;5053246;28;20565;-87
2022/02/21 01:10:09;;;;;;;27.13;4.80;;;;;;;;;;5053505;28;20568;-87
2022/02/21 01:12:36;;;;;;;25.30;4.27;;;;;;;;;;5053673;28;20703;-87
2022/02/21 01:15:04;;;;;;;23.83;4.40;;;;;;;;;;5052839;28;20287;-86
2022/02/21 01:17:31;;;;;;;24.30;4.50;;;;;;;;;;5057232;28;20253;-86
2022/02/21 01:20:03;;;;;;;25.60;4.60;;;;;;;;;;5056519;28;20246;-86
2022/02/21 01:22:30;;;;;;;30.87;4.60;;;;;;;;;;5052386;28;20204;-86
2022/02/21 01:24:59;;;;;;;25.87;4.43;;;;;;;;;;5053134;28;20623;-86
2022/02/21 01:27:26;;;;;;;26.10;4.17;;;;;;;;;;5052718;28;20253;-86
2022/02/21 01:29:55;;;;;;;24.70;4.90;;;;;;;;;;5052217;28;20222;-87
2022/02/21 01:32:23;;;;;;;21.07;4.20;;;;;;;;;;5052030;28;20262;-87
2022/02/21 01:34:50;;;;;;;25.30;5.40;;;;;;;;;;5052954;28;20193;-86
2022/02/21 01:37:17;;;;;;;22.17;4.83;;;;;;;;;;5052860;28;20201;-86
2022/02/21 01:39:44;;;;;;;24.67;4.57;;;;;;;;;;5052056;28;20596;-87
2022/02/21 01:42:21;;;;;;;21.43;3.93;;;;;;;;;;5052393;28;20242;-88
2022/02/21 01:44:49;;;;;;;19.77;3.80;;;;;;;;;;5052351;28;20273;-87
2022/02/21 01:47:17;;;;;;;19.93;4.07;;;;;;;;;;5053007;28;20286;-87
2022/02/21 01:49:45;;;;;;;24.30;3.87;;;;;;;;;;5060145;28;20239;-86
2022/02/21 01:52:12;;;;;;;23.47;3.73;;;;;;;;;;5054134;28;20230;-87
2022/02/21 01:54:40;;;;;;;23.03;4.80;;;;;;;;;;5052302;28;20257;-86
2022/02/21 01:57:08;;;;;;;21.80;4.40;;;;;;;;;;5051749;28;20245;-86
2022/02/21 01:59:38;;;;;;;18.40;3.80;;;;;;;;;;5051887;28;20188;-86
2022/02/21 02:02:06;;;;;;;21.70;4.27;;;;;;;;;;5051063;28;20707;-86
2022/02/21 02:04:33;;;;;;;22.97;4.50;;;;;;;;;;5052406;28;20286;-87
2022/02/21 02:07:00;;;;;;;19.57;3.70;;;;;;;;;;5051976;28;20250;-86
2022/02/21 02:09:28;;;;;;;18.53;3.87;;;;;;;;;;5051889;28;20195;-86
2022/02/21 02:11:55;;;;;;;24.37;4.77;;;;;;;;;;5051749;28;20215;-87
2022/02/21 02:14:29;;;;;;;25.03;3.80;;;;;;;;;;5051247;28;20269;-86
2022/02/21 02:16:58;;;;;;;24.80;4.00;;;;;;;;;;5051936;28;20246;-86
2022/02/21 02:19:25;;;;;;;22.10;4.00;;;;;;;;;;5053771;28;20207;-86
2022/02/21 02:21:55;;;;;;;16.73;3.47;;;;;;;;;;5060071;28;20253;-86
2022/02/21 02:24:25;;;;;;;23.13;4.03;;;;;;;;;;5051276;28;20832;-86
2022/02/21 02:26:56;;;;;;;21.73;4.40;;;;;;;;;;5051372;28;20205;-85
2022/02/21 02:29:23;;;;;;;20.13;3.83;;;;;;;;;;5050676;28;20309;-86
2022/02/21 02:31:51;;;;;;;20.67;3.97;;;;;;;;;;5051030;28;20196;-86
2022/02/21 02:34:19;;;;;;;20.13;3.73;;;;;;;;;;5050178;28;20709;-86
2022/02/21 02:36:48;;;;;;;25.50;3.90;;;;;;;;;;5051085;28;20231;-86
2022/02/21 02:39:17;;;;;;;20.43;3.70;;;;;;;;;;5050932;28;20215;-86
2022/02/21 02:41:46;;;;;;;17.47;3.90;;;;;;;;;;5051427;28;20206;-86
2022/02/21 02:44:13;;;;;;;21.73;3.83;;;;;;;;;;5051913;28;20252;-86
2022/02/21 02:46:43;;;;;;;24.23;4.27;;;;;;;;;;5051539;28;20235;-86
2022/02/21 02:49:16;;;;;;;20.77;4.03;;;;;;;;;;5051953;28;20290;-85
2022/02/21 02:51:44;;;;;;;24.60;4.53;;;;;;;;;;5069959;28;20213;-86
2022/02/21 02:54:11;;;;;;;22.17;4.33;;;;;;;;;;5057527;28;20257;-86
2022/02/21 02:56:39;;;;;;;17.83;3.70;;;;;;;;;;5051945;28;20238;-86
2022/02/21 02:59:08;;;;;;;31.07;4.30;;;;;;;;;;5051001;28;20563;-86
2022/02/21 03:01:36;;;;;;;21.43;4.00;;;;;;;;;;5050605;28;20188;-86
2022/02/21 03:04:03;;;;;;;24.10;4.70;;;;;;;;;;5050732;28;20195;-86
2022/02/21 03:06:30;;;;;;;21.77;3.60;;;;;;;;;;5051137;28;20259;-86
2022/02/21 03:08:58;;;;;;;20.80;4.30;;;;;;;;;;5050189;28;20203;-86
2022/02/21 03:11:25;;;;;;;23.10;3.83;;;;;;;;;;5051051;28;20237;-86
2022/02/21 03:13:53;;;;;;;23.27;5.17;;;;;;;;;;5053432;28;20258;-86
2022/02/21 03:16:21;;;;;;;21.57;4.90;;;;;;;;;;5055201;28;20582;-86
2022/02/21 03:18:49;;;;;;;25.47;4.50;;;;;;;;;;5055102;28;20286;-86
2022/02/21 03:21:16;;;;;;;26.37;5.00;;;;;;;;;;5055177;28;20192;-86
2022/02/21 03:23:43;;;;;;;24.27;4.17;;;;;;;;;;5059616;28;20206;-86
2022/02/21 03:26:10;;;;;;;21.23;4.00;;;;;;;;;;5061466;28;20239;-86
2022/02/21 03:28:37;;;;;;;31.17;5.07;;;;;;;;;;5055229;28;20294;-86
2022/02/21 03:31:05;;;;;;;29.17;4.60;;;;;;;;;;5054275;28;20223;-86
2022/02/21 03:33:33;;;;;;;23.70;4.17;;;;;;;;;;5055136;28;20308;-86
2022/02/21 03:36:00;;;;;;;22.57;4.60;;;;;;;;;;5054775;28;20241;-86
2022/02/21 03:38:28;;;;;;;22.07;4.23;;;;;;;;;;5054258;28;20273;-86
2022/02/21 03:40:55;;;;;;;22.60;4.33;;;;;;;;;;5054659;28;20667;-86
2022/02/21 03:43:22;;;;;;;27.57;4.90;;;;;;;;;;5054406;28;20243;-86
2022/02/21 03:45:50;;;;;;;24.70;4.90;;;;;;;;;;5054921;28;20262;-86
2022/02/21 03:48:17;;;;;;;27.67;4.80;;;;;;;;;;5054856;28;20241;-86
2022/02/21 03:50:45;;;;;;;30.93;4.53;;;;;;;;;;5054417;28;20246;-86
2022/02/21 03:53:13;;;;;;;30.33;4.57;;;;;;;;;;5054261;28;20277;-86
2022/02/21 03:55:40;;;;;;;21.80;4.77;;;;;;;;;;5057884;28;20770;-86
2022/02/21 03:58:07;;;;;;;22.93;4.97;;;;;;;;;;5061644;28;20570;-86
2022/02/21 04:00:34;;;;;;;26.83;4.27;;;;;;;;;;5053894;28;20260;-86
2022/02/21 04:03:02;;;;;;;30.43;4.67;;;;;;;;;;5054358;28;20721;-86
2022/02/21 04:05:29;;;;;;;22.70;4.73;;;;;;;;;;5053802;28;20203;-86
2022/02/21 04:07:57;;;;;;;24.43;4.30;;;;;;;;;;5054297;28;20240;-86
2022/02/21 04:10:25;;;;;;;23.33;3.90;;;;;;;;;;5053903;28;20239;-86
2022/02/21 04:12:52;;;;;;;25.13;4.90;;;;;;;;;;5054006;28;20289;-86
2022/02/21 04:15:19;;;;;;;24.70;4.63;;;;;;;;;;5054226;28;20633;-86
2022/02/21 04:17:47;;;;;;;22.83;4.20;;;;;;;;;;5053852;28;20237;-86
2022/02/21 04:20:15;;;;;;;27.80;4.40;;;;;;;;;;5054045;28;20234;-87
2022/02/21 04:22:42;;;;;;;27.10;5.03;;;;;;;;;;5054221;28;20206;-86
2022/02/21 04:25:12;;;;;;;25.80;4.70;;;;;;;;;;5053317;28;20663;-86
2022/02/21 04:27:40;;;;;;;30.90;5.30;;;;;;;;;;5056613;28;20208;-87
2022/02/21 04:30:08;;;;;;;27.90;4.90;;;;;;;;;;5060003;28;20216;-86
2022/02/21 04:32:37;;;;;;;29.70;4.80;;;;;;;;;;5053743;28;20202;-87
2022/02/21 04:35:05;;;;;;;30.37;5.00;;;;;;;;;;5052395;28;20296;-86
2022/02/21 04:37:32;;;;;;;29.77;5.27;;;;;;;;;;5053827;28;20574;-86
2022/02/21 04:39:59;;;;;;;32.97;5.10;;;;;;;;;;5052730;28;20230;-86
2022/02/21 04:42:28;;;;;;;26.37;4.90;;;;;;;;;;5053408;28;20789;-86
2022/02/21 04:44:55;;;;;;;21.50;4.53;;;;;;;;;;5053502;28;20365;-86
2022/02/21 04:47:22;;;;;;;32.87;5.27;;;;;;;;;;5053383;28;20226;-86
2022/02/21 04:49:49;;;;;;;28.23;4.27;;;;;;;;;;5053770;28;20235;-86
2022/02/21 04:52:17;;;;;;;23.00;4.47;;;;;;;;;;5053260;28;20203;-86
2022/02/21 04:54:45;;;;;;;24.07;5.03;;;;;;;;;;5053642;28;20223;-87
2022/02/21 04:57:12;;;;;;;32.77;5.00;;;;;;;;;;5053194;28;20210;-86
2022/02/21 04:59:41;;;;;;;28.77;4.97;;;;;;;;;;5056232;28;20211;-86
2022/02/21 05:02:11;;;;;;;24.37;4.77;;;;;;;;;;5061000;28;20207;-87
2022/02/21 05:04:38;;;;;;;27.73;4.87;;;;;;;;;;5044470;28;20198;-87
2022/02/21 05:07:05;;;;;;;24.60;5.37;;;;;;;;;;5053125;28;20188;-87
2022/02/21 05:09:33;;;;;;;27.20;4.83;;;;;;;;;;5054123;28;20206;-86
2022/02/21 05:12:00;;;;;;;28.57;5.20;;;;;;;;;;5053483;28;20630;-86
2022/02/21 05:14:27;;;;;;;28.47;4.73;;;;;;;;;;5052261;28;20249;-87
2022/02/21 05:16:57;;;;;;;27.23;4.60;;;;;;;;;;5053062;28;20255;-86
2022/02/21 05:19:25;;;;;;;29.70;4.60;;;;;;;;;;5052988;28;20202;-86
2022/02/21 05:21:52;;;;;;;21.87;4.27;;;;;;;;;;5052631;28;20277;-86
2022/02/21 05:24:19;;;;;;;26.23;4.63;;;;;;;;;;5051817;28;20268;-87
2022/02/21 05:26:46;;;;;;;29.30;5.07;;;;;;;;;;5051854;28;20207;-86
2022/02/21 05:29:14;;;;;;;26.10;4.63;;;;;;;;;;5052961;28;20286;-87
2022/02/21 05:31:41;;;;;;;26.30;4.93;;;;;;;;;;5053344;28;20222;-86
2022/02/21 05:34:10;;;;;;;31.67;5.27;;;;;;;;;;5060830;28;20672;-86
2022/02/21 05:36:37;;;;;;;27.80;4.90;;;;;;;;;;5052416;28;20287;-87
2022/02/21 05:39:04;;;;;;;26.47;4.87;;;;;;;;;;5052189;28;20273;-87
2022/02/21 05:41:32;;;;;;;27.90;4.73;;;;;;;;;;5052140;28;20258;-86
2022/02/21 05:44:00;;;;;;;21.80;4.17;;;;;;;;;;5051959;28;20223;-86
2022/02/21 05:46:27;;;;;;;32.03;4.70;;;;;;;;;;5052275;28;20262;-87
2022/02/21 05:48:54;;;;;;;28.37;5.07;;;;;;;;;;5052341;28;20211;-87
2022/02/21 05:51:23;;;;;;;29.17;4.93;;;;;;;;;;5052901;28;20273;-87
2022/02/21 05:53:50;;;;;;;24.23;4.10;;;;;;;;;;5051508;28;20314;-87
2022/02/21 05:56:20;;;;;;;24.23;4.80;;;;;;;;;;5051680;28;20322;-86
2022/02/21 05:58:47;;;;;;;28.00;5.03;;;;;;;;;;5052348;28;20269;-86
2022/02/21 06:01:14;;;;;;;18.27;4.10;;;;;;;;;;5052504;28;20194;-86
2022/02/21 06:03:42;;;;;;;27.83;4.27;;;;;;;;;;5052288;28;20290;-86
2022/02/21 06:06:09;;;;;;;28.23;5.03;;;;;;;;;;5057812;28;20203;-85
2022/02/21 06:08:37;;;;;;;23.33;4.10;;;;;;;;;;5052819;28;20211;-84
2022/02/21 06:11:05;;;;;;;26.20;4.47;;;;;;;;;;5051052;28;20284;-83
2022/02/21 06:13:32;;;;;;;18.70;4.17;;;;;;;;;;5051988;28;20239;-84
2022/02/21 06:15:59;;;;;;;26.20;4.57;;;;;;;;;;5050882;28;20230;-84
2022/02/21 06:18:27;;;;;;;23.13;4.03;;;;;;;;;;5051647;28;20304;-84
2022/02/21 06:20:54;;;;;;;32.40;4.87;;;;;;;;;;5052613;28;20207;-88
2022/02/21 06:23:21;;;;;;;26.27;4.57;;;;;;;;;;5053754;28;20196;-86
2022/02/21 06:25:50;;;;;;;16.57;3.47;;;;;;;;;;5054038;28;20192;-88
2022/02/21 06:28:17;;;;;;;21.07;3.63;;;;;;;;;;5053653;28;20231;-87
2022/02/21 06:30:45;;;;;;;17.27;3.30;;;;;;;;;;5054351;28;20196;-85
2022/02/21 06:33:12;;;;;;;20.43;4.10;;;;;;;;;;5052478;28;20242;-85
2022/02/21 06:35:41;;;;;;;19.77;3.33;;;;;;;;;;5051748;28;20240;-85
2022/02/21 06:38:08;;;;;;;23.77;4.20;;;;;;;;;;5060058;28;20200;-85
2022/02/21 06:40:35;;;;;;;16.60;3.40;;;;;;;;;;5055296;28;20329;-84
2022/02/21 06:43:04;;;;;;;19.03;3.70;;;;;;;;;;5052236;28;20803;-87
2022/02/21 06:45:31;;;;;;;19.07;3.70;;;;;;;;;;5035363;28;20259;-85
2022/02/21 06:47:59;;;;;;;23.17;3.63;;;;;;;;;;5044829;28;20208;-86
2022/02/21 06:50:27;;;;;;;21.40;4.07;;;;;;;;;;5034369;28;20294;-84
2022/02/21 06:52:54;;;;;;;19.40;3.40;;;;;;;;;;5049907;28;20266;-82
2022/02/21 06:55:22;;;;;;;22.60;4.07;;;;;;;;;;5050403;28;20729;-84
2022/02/21 06:57:49;;;;;;;21.03;3.97;;;;;;;;;;5049711;28;20667;-83
2022/02/21 07:00:18;;;;;;;22.03;4.00;;;;;;;;;;5050636;28;20197;-83
2022/02/21 07:02:46;;;;;;;25.03;3.60;;;;;;;;;;5050170;28;20200;-82
2022/02/21 07:05:13;;;;;;;14.23;2.77;;;;;;;;;;5050450;28;20258;-85
2022/02/21 07:07:41;;;;;;;18.43;3.57;;;;;;;;;;5050980;28;20227;-84
2022/02/21 07:10:09;;;;;;;16.40;3.37;;;;;;;;;;5058196;28;20261;-84
2022/02/21 07:12:36;;;;;;;15.90;3.20;;;;;;;;;;5051387;28;20234;-84
2022/02/21 07:15:04;;;;;;;18.47;2.83;;;;;;;;;;5050095;28;20302;-84
2022/02/21 07:17:38;;;;;;;16.67;3.27;;;;;;;;;;5051203;28;20239;-84
2022/02/21 07:20:06;;;;;;;15.63;2.97;;;;;;;;;;5050576;28;20213;-84
2022/02/21 07:22:34;;;;;;;14.03;3.40;;;;;;;;;;5051117;28;20286;-84
2022/02/21 07:25:01;;;;;;;15.77;3.20;;;;;;;;;;5050678;28;20651;-84
2022/02/21 07:27:28;;;;;;;19.30;3.67;;;;;;;;;;5050715;28;20196;-85
2022/02/21 07:29:56;;;;;;;16.40;2.80;;;;;;;;;;5050891;28;20249;-85
2022/02/21 07:32:23;;;;;;;12.97;3.13;;;;;;;;;;5050871;28;20278;-86
2022/02/21 07:34:52;;;;;;;15.90;3.40;;;;;;;;;;5050516;28;20275;-86
2022/02/21 07:37:19;;;;;;;15.10;3.00;;;;;;;;;;5052016;28;20241;-86
2022/02/21 07:39:46;;;;;;;19.77;3.33;;;;;;;;;;5051593;28;20294;-84
2022/02/21 07:42:13;;;;;;;16.60;2.90;;;;;;;;;;5054659;28;20251;-85
2022/02/21 07:44:40;;;;;;;17.63;2.87;;;;;;;;;;5055126;28;20241;-85
2022/02/21 07:47:09;;;;;;;20.40;3.10;;;;;;;;;;5050956;28;20212;-85
2022/02/21 07:49:37;;;;;;;14.20;2.63;;;;;;;;;;5050514;28;20584;-86
2022/02/21 07:52:06;;;;;;;12.37;2.97;;;;;;;;;;5050332;28;20292;-85
2022/02/21 07:54:33;;;;;;;13.97;2.90;;;;;;;;;;5049791;28;20280;-85
2022/02/21 07:57:01;;;;;;;12.40;2.70;;;;;;;;;;5050790;28;20261;-85
2022/02/21 07:59:28;;;;;;;12.50;2.70;;;;;;;;;;5051304;28;20203;-86
2022/02/21 08:01:55;;;;;;;9.80;1.90;;;;;;;;;;5054660;28;20309;-86
2022/02/21 08:04:22;;;;;;;6.77;1.80;;;;;;;;;;5036382;28;20260;-86
2022/02/21 08:06:50;;;;;;;10.10;1.90;;;;;;;;;;5040089;28;20265;-85
2022/02/21 08:09:20;;;;;;;8.83;1.90;;;;;;;;;;5054427;28;20230;-86
2022/02/21 08:11:47;;;;;;;14.23;2.90;;;;;;;;;;5054220;28;20257;-86
2022/02/21 08:14:15;;;;;;;14.63;2.80;;;;;;;;;;5058572;28;20207;-86
2022/02/21 08:16:42;;;;;;;13.60;3.00;;;;;;;;;;5061091;28;20271;-86
2022/02/21 08:19:10;;;;;;;13.10;3.27;;;;;;;;;;5054090;28;20191;-86
2022/02/21 08:21:37;;;;;;;15.50;3.50;;;;;;;;;;5054634;28;20207;-84
2022/02/21 08:24:05;;;;;;;13.67;3.17;;;;;;;;;;5053590;28;20692;-85
2022/02/21 08:26:34;;;;;;;11.17;2.80;;;;;;;;;;5054044;28;20238;-84
2022/02/21 08:29:01;;;;;;;17.67;3.70;;;;;;;;;;5053584;28;20227;-85
2022/02/21 08:31:28;;;;;;;17.57;3.90;;;;;;;;;;5053828;28;20648;-85
2022/02/21 08:33:55;;;;;;;19.30;3.60;;;;;;;;;;5054012;28;20230;-84
2022/02/21 08:36:23;;;;;;;19.60;4.07;;;;;;;;;;5053286;28;20311;-85
2022/02/21 08:38:50;;;;;;;17.90;3.63;;;;;;;;;;5053029;28;20654;-85
2022/02/21 08:41:17;;;;;;;24.07;4.23;;;;;;;;;;5053505;28;20285;-85
2022/02/21 08:43:46;;;;;;;20.27;3.90;;;;;;;;;;5053305;28;20269;-85
2022/02/21 08:46:13;;;;;;;15.47;3.87;;;;;;;;;;5053836;28;20232;-85
2022/02/21 08:48:41;;;;;;;12.10;3.23;;;;;;;;;;5061836;28;20200;-85
2022/02/21 08:51:08;;;;;;;14.50;4.20;;;;;;;;;;5053979;28;20283;-84
2022/02/21 08:53:36;;;;;;;15.80;3.80;;;;;;;;;;5052884;28;20686;-85
2022/02/21 08:56:04;;;;;;;15.13;3.77;;;;;;;;;;5052859;28;20631;-85
2022/02/21 08:58:31;;;;;;;19.87;3.70;;;;;;;;;;5052455;28;20359;-85
2022/02/21 09:01:00;;;;;;;19.10;4.17;;;;;;;;;;5052002;28;20219;-85
2022/02/21 09:03:27;;;;;;;17.73;3.53;;;;;;;;;;5053324;28;20290;-85
2022/02/21 09:05:54;;;;;;;19.30;4.53;;;;;;;;;;5052502;28;20199;-84
2022/02/21 09:08:22;;;;;;;24.23;4.43;;;;;;;;;;5053087;28;20627;-85
2022/02/21 09:10:49;;;;;;;23.93;5.07;;;;;;;;;;5045231;28;20307;-85
2022/02/21 09:13:16;;;;;;;21.43;4.07;;;;;;;;;;5053589;28;20228;-85
2022/02/21 09:15:44;;;;;;;22.47;4.60;;;;;;;;;;5053786;28;20285;-85
2022/02/21 09:18:12;;;;;;;26.83;5.50;;;;;;;;;;5053623;28;20295;-85
2022/02/21 09:20:40;;;;;;;20.57;4.40;;;;;;;;;;5059317;28;20233;-86
2022/02/21 09:23:07;;;;;;;26.63;4.90;;;;;;;;;;5056601;28;20269;-86
2022/02/21 09:25:34;;;;;;;20.13;4.53;;;;;;;;;;5052864;28;20238;-85
2022/02/21 09:28:02;;;;;;;20.73;4.30;;;;;;;;;;5053145;28;20248;-85
2022/02/21 09:30:29;;;;;;;16.33;3.13;;;;;;;;;;5052967;28;20203;-84
2022/02/21 09:32:56;;;;;;;18.23;3.57;;;;;;;;;;5053333;28;20192;-83
2022/02/21 09:35:25;;;;;;;12.70;2.97;;;;;;;;;;5052606;28;20250;-84
2022/02/21 09:37:52;;;;;;;14.30;3.63;;;;;;;;;;5052383;28;20645;-84
2022/02/21 09:40:20;;;;;;;17.17;3.50;;;;;;;;;;5052578;28;20239;-85
2022/02/21 09:42:48;;;;;;;20.70;3.73;;;;;;;;;;5052096;28;20254;-84
2022/02/21 09:45:18;;;;;;;17.20;3.40;;;;;;;;;;5052615;28;20683;-84
2022/02/21 09:47:45;;;;;;;21.20;3.30;;;;;;;;;;5052502;28;20194;-85
2022/02/21 09:50:12;;;;;;;17.07;2.90;;;;;;;;;;5052465;28;20287;-84
2022/02/21 09:52:41;;;;;;;18.00;4.63;;;;;;;;;;5057153;28;20648;-84
2022/02/21 09:55:09;;;;;;;22.00;4.67;;;;;;;;;;5056992;28;20649;-84
2022/02/21 09:57:36;;;;;;;21.60;5.00;;;;;;;;;;5052875;28;20254;-85
2022/02/21 10:00:05;;;;;;;19.37;4.77;;;;;;;;;;5051897;28;20232;-85
2022/02/21 10:02:34;;;;;;;24.13;4.97;;;;;;;;;;5051947;28;20196;-85
2022/02/21 10:05:11;;;;;;;20.47;5.00;;;;;;;;;;5052143;28;20249;-84
2022/02/21 10:07:38;;;;;;;22.30;4.90;;;;;;;;;;5051792;28;20230;-84
2022/02/21 10:10:08;;;;;;;21.50;5.10;;;;;;;;;;5045967;28;20237;-85
2022/02/21 10:12:45;;;;;;;23.60;5.17;;;;;;;;;;5050678;28;20261;-84
2022/02/21 10:15:16;;;;;;;21.93;5.70;;;;;;;;;;5043311;28;20623;-85
2022/02/21 10:17:43;;;;;;;28.93;5.77;;;;;;;;;;5045233;28;20234;-85
2022/02/21 10:20:11;;;;;;;29.40;5.20;;;;;;;;;;5041804;28;20230;-84
2022/02/21 10:22:38;;;;;;;29.23;5.53;;;;;;;;;;5046344;28;20231;-85
2022/02/21 10:25:17;;;;;;;23.07;4.80;;;;;;;;;;5058833;28;20200;-85
2022/02/21 10:27:47;;;;;;;24.67;5.30;;;;;;;;;;5051620;28;20628;-84
2022/02/21 10:30:17;;;;;;;25.67;5.60;;;;;;;;;;5051491;28;20196;-84
2022/02/21 10:32:47;;;;;;;21.63;5.50;;;;;;;;;;5050731;28;20227;-84
2022/02/21 10:35:16;;;;;;;30.40;5.27;;;;;;;;;;5051176;28;20766;-84
2022/02/21 10:37:44;;;;;;;25.60;5.27;;;;;;;;;;5038974;28;20219;-84
2022/02/21 10:40:12;;;;;;;20.10;5.10;;;;;;;;;;5051661;28;20766;-84
2022/02/21 10:42:41;;;;;;;25.03;5.17;;;;;;;;;;5051156;28;20643;-84
2022/02/21 10:45:13;;;;;;;18.23;4.43;;;;;;;;;;5051019;28;20658;-84
2022/02/21 10:47:41;;;;;;;23.53;5.20;;;;;;;;;;5051517;28;20203;-84
2022/02/21 10:50:10;;;;;;;24.60;5.03;;;;;;;;;;5052118;28;20238;-84
2022/02/21 10:52:39;;;;;;;19.77;4.60;;;;;;;;;;5050796;28;20196;-84
2022/02/21 10:55:09;;;;;;;25.67;4.77;;;;;;;;;;5056241;28;20236;-84
2022/02/21 10:57:48;;;;;;;24.93;4.93;;;;;;;;;;5052839;28;20211;-85
2022/02/21 11:00:16;;;;;;;23.83;4.83;;;;;;;;;;5051351;28;20691;-84
2022/02/21 11:02:44;;;;;;;24.93;5.00;;;;;;;;;;5050787;28;20192;-84
2022/02/21 11:05:12;;;;;;;19.00;4.83;;;;;;;;;;5050434;28;20211;-84
2022/02/21 11:07:41;;;;;;;22.73;5.23;;;;;;;;;;5051238;28;20204;-84
2022/02/21 11:10:08;;;;;;;29.67;5.73;;;;;;;;;;5051337;28;20207;-84
2022/02/21 11:12:39;;;;;;;21.67;5.20;;;;;;;;;;5050390;28;20682;-84
2022/02/21 11:15:08;;;;;;;28.30;5.53;;;;;;;;;;5050862;28;20200;-84
2022/02/21 11:17:37;;;;;;;28.53;5.13;;;;;;;;;;5050672;28;20302;-84
2022/02/21 11:20:04;;;;;;;28.40;5.27;;;;;;;;;;5054755;28;20287;-84
2022/02/21 11:22:32;;;;;;;26.20;5.60;;;;;;;;;;5051078;28;20275;-84
2022/02/21 11:25:02;;;;;;;29.53;6.07;;;;;;;;;;5055455;28;20254;-84
2022/02/21 11:27:34;;;;;;;27.03;5.50;;;;;;;;;;5053490;28;20203;-84
2022/02/21 11:30:06;;;;;;;29.93;5.63;;;;;;;;;;5049662;28;20195;-84
2022/02/21 11:32:34;;;;;;;26.93;6.00;;;;;;;;;;5043591;28;20227;-83
2022/02/21 11:35:12;;;;;;;25.40;5.37;;;;;;;;;;5052317;28;20714;-85
2022/02/21 11:37:40;;;;;;;26.30;5.80;;;;;;;;;;5056496;28;20329;-85
2022/02/21 11:40:08;;;;;;;26.67;5.63;;;;;;;;;;5055960;28;20294;-85
2022/02/21 11:42:36;;;;;;;27.27;5.57;;;;;;;;;;5055714;28;20216;-83
2022/02/21 11:45:05;;;;;;;22.63;5.90;;;;;;;;;;5054174;28;20773;-83
2022/02/21 11:47:38;;;;;;;29.67;5.90;;;;;;;;;;5055893;28;20632;-86
2022/02/21 11:50:08;;;;;;;25.23;5.83;;;;;;;;;;5057483;28;20199;-85
2022/02/21 11:52:37;;;;;;;27.57;5.80;;;;;;;;;;5056820;28;20278;-85
2022/02/21 11:55:05;;;;;;;23.23;5.97;;;;;;;;;;5055563;28;20253;-84
2022/02/21 11:57:38;;;;;;;26.37;5.60;;;;;;;;;;5058263;28;20224;-85
2022/02/21 12:00:24;;;;;;;27.87;5.80;;;;;;;;;;5056503;28;20659;-84
2022/02/21 12:03:12;;;;;;;27.93;5.23;;;;;;;;;;5056391;28;20224;-84
2022/02/21 12:05:40;;;;;;;27.57;5.93;;;;;;;;;;5056762;28;20206;-84
2022/02/21 12:08:38;;;;;;;31.23;5.93;;;;;;;;;;5055551;28;20235;-84
2022/02/21 12:11:15;;;;;;;26.80;4.90;;;;;;;;;;5046166;28;20207;-85
2022/02/21 12:14:10;;;;;;;24.70;5.93;;;;;;;;;;5056832;28;20482;-85
2022/02/21 12:16:59;;;;;;;24.83;5.30;;;;;;;;;;5001814;28;20670;-85
2022/02/21 12:19:28;;;;;;;25.43;5.40;;;;;;;;;;5057524;28;20625;-85
2022/02/21 12:22:12;;;;;;;25.47;5.10;;;;;;;;;;5056723;28;20239;-85
2022/02/21 12:24:58;;;;;;;24.37;5.00;;;;;;;;;;5055821;28;20282;-85
2022/02/21 12:27:25;;;;;;;27.07;5.50;;;;;;;;;;5056577;28;20249;-84
2022/02/21 12:29:52;;;;;;;21.23;5.03;;;;;;;;;;5056195;28;20627;-85
2022/02/21 12:32:26;;;;;;;31.17;5.67;;;;;;;;;;5047909;28;20227;-84
2022/02/21 12:34:56;;;;;;;28.07;5.17;;;;;;;;;;5054817;28;20211;-84
2022/02/21 12:37:24;;;;;;;33.23;5.87;;;;;;;;;;5055793;28;20306;-85
2022/02/21 12:39:51;;;;;;;34.50;6.63;;;;;;;;;;5054018;28;20232;-85
2022/02/21 12:42:20;;;;;;;27.47;6.23;;;;;;;;;;5047875;28;20632;-85
2022/02/21 12:44:48;;;;;;;30.93;5.80;;;;;;;;;;5054095;28;20249;-85
2022/02/21 12:47:15;;;;;;;27.07;5.57;;;;;;;;;;5053429;28;20230;-84
2022/02/21 12:49:49;;;;;;;31.50;5.20;;;;;;;;;;5053901;28;20211;-85
2022/02/21 12:52:19;;;;;;;28.40;5.77;;;;;;;;;;5052813;28;20226;-84
2022/02/21 12:54:53;;;;;;;26.27;5.73;;;;;;;;;;5053054;28;20228;-85
2022/02/21 12:57:21;;;;;;;27.30;5.67;;;;;;;;;;5052939;28;20227;-83
2022/02/21 12:59:49;;;;;;;26.50;5.20;;;;;;;;;;5053727;28;20684;-84
2022/02/21 13:02:16;;;;;;;25.13;5.20;;;;;;;;;;5053242;28;20196;-84
2022/02/21 13:04:44;;;;;;;36.90;6.33;;;;;;;;;;5051979;28;20199;-83
2022/02/21 13:07:11;;;;;;;34.17;6.70;;;;;;;;;;5052473;28;20235;-84
2022/02/21 13:09:40;;;;;;;30.67;6.87;;;;;;;;;;5053007;28;20631;-83
2022/02/21 13:12:14;;;;;;;28.97;6.00;;;;;;;;;;5052963;28;20274;-84
2022/02/21 13:14:41;;;;;;;29.17;5.70;;;;;;;;;;5052806;28;20227;-83
2022/02/21 13:17:09;;;;;;;33.17;6.13;;;;;;;;;;5052606;28;20302;-83
2022/02/21 13:19:37;;;;;;;28.27;5.97;;;;;;;;;;5052322;28;20625;-83
2022/02/21 13:22:05;;;;;;;28.33;6.40;;;;;;;;;;5052342;28;20195;-83
2022/02/21 13:24:33;;;;;;;28.00;5.00;;;;;;;;;;5052622;28;20291;-83
2022/02/21 13:27:03;;;;;;;25.23;5.43;;;;;;;;;;5052743;28;20196;-83
2022/02/21 13:29:34;;;;;;;29.57;5.20;;;;;;;;;;5052486;28;20254;-83
2022/02/21 13:32:03;;;;;;;22.97;4.93;;;;;;;;;;5052927;28;20667;-84
2022/02/21 13:34:43;;;;;;;25.43;5.43;;;;;;;;;;5052357;28;20287;-82
2022/02/21 13:37:11;;;;;;;29.73;5.37;;;;;;;;;;5046133;28;20274;-84
2022/02/21 13:39:40;;;;;;;28.80;5.50;;;;;;;;;;5052662;28;20239;-83
2022/02/21 13:42:17;;;;;;;28.90;5.17;;;;;;;;;;5052631;28;20191;-83
2022/02/21 13:44:44;;;;;;;29.17;6.27;;;;;;;;;;5052342;28;20278;-83
2022/02/21 13:47:27;;;;;;;26.30;5.83;;;;;;;;;;5053033;28;20293;-84
2022/02/21 13:49:54;;;;;;;27.33;5.70;;;;;;;;;;5052357;28;20196;-83
2022/02/21 13:52:23;;;;;;;29.47;6.23;;;;;;;;;;5052930;28;20244;-83
2022/02/21 13:54:50;;;;;;;25.67;5.40;;;;;;;;;;5051847;28;20199;-84
2022/02/21 13:57:20;;;;;;;25.90;5.20;;;;;;;;;;5051636;28;20219;-84
2022/02/21 13:59:47;;;;;;;27.03;5.30;;;;;;;;;;5052334;28;20223;-83
2022/02/21 14:02:21;;;;;;;27.83;6.07;;;;;;;;;;5052648;28;20599;-83
2022/02/21 14:04:49;;;;;;;33.83;6.60;;;;;;;;;;5051234;28;20227;-83
2022/02/21 14:07:16;;;;;;;27.17;5.40;;;;;;;;;;5051794;28;20859;-83
2022/02/21 14:09:43;;;;;;;27.30;5.77;;;;;;;;;;5051789;28;20188;-83
2022/02/21 14:12:11;;;;;;;26.47;5.67;;;;;;;;;;5051587;28;20203;-84
2022/02/21 14:14:40;;;;;;;27.33;6.00;;;;;;;;;;5051601;28;20278;-83
2022/02/21 14:17:07;;;;;;;22.50;4.50;;;;;;;;;;5049202;28;20720;-83
2022/02/21 14:19:34;;;;;;;25.60;5.10;;;;;;;;;;5051486;28;20283;-83
2022/02/21 14:22:01;;;;;;;25.17;5.17;;;;;;;;;;5051747;28;20200;-83
2022/02/21 14:24:29;;;;;;;29.07;5.77;;;;;;;;;;5051534;28;20192;-83
2022/02/21 14:26:56;;;;;;;22.33;5.27;;;;;;;;;;5051580;28;20227;-83
2022/02/21 14:29:23;;;;;;;25.00;5.67;;;;;;;;;;5051158;28;20686;-84
2022/02/21 14:31:52;;;;;;;26.03;5.03;;;;;;;;;;5051809;28;20287;-83
2022/02/21 14:34:19;;;;;;;25.60;4.77;;;;;;;;;;5051222;28;20275;-84
2022/02/21 14:36:47;;;;;;;22.07;4.60;;;;;;;;;;5051579;28;20715;-84
2022/02/21 14:39:14;;;;;;;18.50;4.53;;;;;;;;;;5051601;28;20192;-84